sensor_id;sensor_type;location;lat;lon;timestamp;temperature;humidity
9437;DHT22;4757;59.334;18.034;2022-07-29T00:01:40;14.70;99.90
9437;DHT22;4757;59.334;18.034;2022-07-29T00:04:07;14.60;99.90
9437;DHT22;4757;59.334;18.034;2022-07-29T00:06:34;14.60;99.90
9437;DHT22;4757;59.334;18.034;2022-07-29T00:09:01;14.60;99.90
9437;DHT22;4757;59.334;18.034;2022-07-29T00:11:28;14.50;99.90
9437;DHT22;4757;59.334;18.034;2022-07-29T00:13:55;14.40;99.90
9437;DHT22;4757;59.334;18.034;2022-07-29T00:16:22;14.40;99.90
9437;DHT22;4757;59.334;18.034;2022-07-29T00:18:49;14.40;99.90
9437;DHT22;4757;59.334;18.034;2022-07-29T00:21:16;14.40;99.90
9437;DHT22;4757;59.334;18.034;2022-07-29T00:23:43;14.40;99.90
9437;DHT22;4757;59.334;18.034;2022-07-29T00:26:10;14.30;99.90
9437;DHT22;4757;59.334;18.034;2022-07-29T00:28:37;14.20;99.90
9437;DHT22;4757;59.334;18.034;2022-07-29T00:31:05;14.30;99.90
9437;DHT22;4757;59.334;18.034;2022-07-29T00:33:32;14.40;99.90
9437;DHT22;4757;59.334;18.034;2022-07-29T00:35:59;14.30;99.90
9437;DHT22;4757;59.334;18.034;2022-07-29T00:38:26;14.20;99.90
9437;DHT22;4757;59.334;18.034;2022-07-29T00:40:53;14.30;99.90
9437;DHT22;4757;59.334;18.034;2022-07-29T00:43:20;14.30;99.90
9437;DHT22;4757;59.334;18.034;2022-07-29T00:45:47;14.40;99.90
9437;DHT22;4757;59.334;18.034;2022-07-29T00:48:14;14.40;99.90
9437;DHT22;4757;59.334;18.034;2022-07-29T00:50:41;14.40;99.90
9437;DHT22;4757;59.334;18.034;2022-07-29T00:53:08;14.20;99.90
9437;DHT22;4757;59.334;18.034;2022-07-29T00:55:35;14.20;99.90
9437;DHT22;4757;59.334;18.034;2022-07-29T00:58:03;14.10;99.90
9437;DHT22;4757;59.334;18.034;2022-07-29T01:00:30;14.10;99.90
9437;DHT22;4757;59.334;18.034;2022-07-29T01:02:58;14.10;99.90
9437;DHT22;4757;59.334;18.034;2022-07-29T01:05:27;14.10;99.90
9437;DHT22;4757;59.334;18.034;2022-07-29T01:08:15;14.10;99.90
9437;DHT22;4757;59.334;18.034;2022-07-29T01:10:43;14.10;99.90
9437;DHT22;4757;59.334;18.034;2022-07-29T01:13:11;14.00;99.90
9437;DHT22;4757;59.334;18.034;2022-07-29T01:16:03;14.00;99.90
9437;DHT22;4757;59.334;18.034;2022-07-29T01:18:36;14.20;99.90
9437;DHT22;4757;59.334;18.034;2022-07-29T01:21:16;14.20;99.90
9437;DHT22;4757;59.334;18.034;2022-07-29T01:31:58;14.20;99.90
9437;DHT22;4757;59.334;18.034;2022-07-29T01:37:26;14.10;99.90
9437;DHT22;4757;59.334;18.034;2022-07-29T01:39:57;14.20;99.90
9437;DHT22;4757;59.334;18.034;2022-07-29T01:42:32;14.10;99.90
9437;DHT22;4757;59.334;18.034;2022-07-29T01:45:07;14.10;99.90
9437;DHT22;4757;59.334;18.034;2022-07-29T01:50:42;14.20;99.90
9437;DHT22;4757;59.334;18.034;2022-07-29T01:53:12;14.10;99.90
9437;DHT22;4757;59.334;18.034;2022-07-29T01:55:44;14.10;99.90
9437;DHT22;4757;59.334;18.034;2022-07-29T01:58:13;14.10;99.90
9437;DHT22;4757;59.334;18.034;2022-07-29T02:00:42;14.00;99.90
9437;DHT22;4757;59.334;18.034;2022-07-29T02:03:13;14.00;99.90
9437;DHT22;4757;59.334;18.034;2022-07-29T02:05:42;14.00;99.90
9437;DHT22;4757;59.334;18.034;2022-07-29T02:08:11;14.10;99.90
9437;DHT22;4757;59.334;18.034;2022-07-29T02:10:40;14.10;99.90
9437;DHT22;4757;59.334;18.034;2022-07-29T02:13:09;14.20;99.90
9437;DHT22;4757;59.334;18.034;2022-07-29T02:15:39;14.00;99.90
9437;DHT22;4757;59.334;18.034;2022-07-29T02:18:13;14.00;99.90
9437;DHT22;4757;59.334;18.034;2022-07-29T02:20:44;14.00;99.90
9437;DHT22;4757;59.334;18.034;2022-07-29T02:23:12;13.90;99.90
9437;DHT22;4757;59.334;18.034;2022-07-29T02:25:41;13.90;99.90
9437;DHT22;4757;59.334;18.034;2022-07-29T02:28:11;13.90;99.90
9437;DHT22;4757;59.334;18.034;2022-07-29T02:30:42;13.90;99.90
9437;DHT22;4757;59.334;18.034;2022-07-29T02:33:13;13.80;99.90
9437;DHT22;4757;59.334;18.034;2022-07-29T02:35:41;13.90;99.90
9437;DHT22;4757;59.334;18.034;2022-07-29T02:38:13;14.00;99.90
9437;DHT22;4757;59.334;18.034;2022-07-29T02:41:01;14.00;99.90
9437;DHT22;4757;59.334;18.034;2022-07-29T02:43:29;14.10;99.90
9437;DHT22;4757;59.334;18.034;2022-07-29T02:45:58;14.00;99.90
9437;DHT22;4757;59.334;18.034;2022-07-29T02:48:36;14.00;99.90
9437;DHT22;4757;59.334;18.034;2022-07-29T02:51:16;13.90;99.90
9437;DHT22;4757;59.334;18.034;2022-07-29T02:54:07;13.90;99.90
9437;DHT22;4757;59.334;18.034;2022-07-29T02:56:39;13.90;99.90
9437;DHT22;4757;59.334;18.034;2022-07-29T02:59:18;14.00;99.90
9437;DHT22;4757;59.334;18.034;2022-07-29T03:01:47;14.00;99.90
9437;DHT22;4757;59.334;18.034;2022-07-29T03:04:14;14.10;99.90
9437;DHT22;4757;59.334;18.034;2022-07-29T03:06:44;14.00;99.90
9437;DHT22;4757;59.334;18.034;2022-07-29T03:09:13;14.00;99.90
9437;DHT22;4757;59.334;18.034;2022-07-29T03:11:43;14.10;99.90
9437;DHT22;4757;59.334;18.034;2022-07-29T03:14:19;14.10;99.90
9437;DHT22;4757;59.334;18.034;2022-07-29T03:16:47;14.10;99.90
9437;DHT22;4757;59.334;18.034;2022-07-29T03:19:15;14.10;99.90
9437;DHT22;4757;59.334;18.034;2022-07-29T03:21:42;13.90;99.90
9437;DHT22;4757;59.334;18.034;2022-07-29T03:24:10;14.00;99.90
9437;DHT22;4757;59.334;18.034;2022-07-29T03:26:37;14.00;99.90
9437;DHT22;4757;59.334;18.034;2022-07-29T03:29:04;13.90;99.90
9437;DHT22;4757;59.334;18.034;2022-07-29T03:31:31;13.90;99.90
9437;DHT22;4757;59.334;18.034;2022-07-29T03:33:59;14.00;99.90
9437;DHT22;4757;59.334;18.034;2022-07-29T03:36:26;14.00;99.90
9437;DHT22;4757;59.334;18.034;2022-07-29T03:38:53;13.90;99.90
9437;DHT22;4757;59.334;18.034;2022-07-29T03:41:24;14.00;99.90
9437;DHT22;4757;59.334;18.034;2022-07-29T03:43:51;14.00;99.90
9437;DHT22;4757;59.334;18.034;2022-07-29T03:46:22;14.00;99.90
9437;DHT22;4757;59.334;18.034;2022-07-29T03:48:53;14.10;99.90
9437;DHT22;4757;59.334;18.034;2022-07-29T03:51:23;14.10;99.90
9437;DHT22;4757;59.334;18.034;2022-07-29T03:54:03;14.10;99.90
9437;DHT22;4757;59.334;18.034;2022-07-29T03:56:40;14.10;99.90
9437;DHT22;4757;59.334;18.034;2022-07-29T03:59:07;14.20;99.90
9437;DHT22;4757;59.334;18.034;2022-07-29T04:01:35;14.30;99.90
9437;DHT22;4757;59.334;18.034;2022-07-29T04:04:03;14.40;99.90
9437;DHT22;4757;59.334;18.034;2022-07-29T04:06:41;14.50;99.90
9437;DHT22;4757;59.334;18.034;2022-07-29T04:09:09;14.50;99.90
9437;DHT22;4757;59.334;18.034;2022-07-29T04:11:39;14.40;99.90
9437;DHT22;4757;59.334;18.034;2022-07-29T04:14:26;14.50;99.90
9437;DHT22;4757;59.334;18.034;2022-07-29T04:16:53;14.50;99.90
9437;DHT22;4757;59.334;18.034;2022-07-29T04:19:20;14.60;99.90
9437;DHT22;4757;59.334;18.034;2022-07-29T04:21:47;14.80;99.90
9437;DHT22;4757;59.334;18.034;2022-07-29T04:24:15;15.00;99.90
9437;DHT22;4757;59.334;18.034;2022-07-29T04:26:43;15.10;99.90
9437;DHT22;4757;59.334;18.034;2022-07-29T04:29:11;15.10;99.90
9437;DHT22;4757;59.334;18.034;2022-07-29T04:31:38;15.20;99.90
9437;DHT22;4757;59.334;18.034;2022-07-29T04:34:06;15.20;99.90
9437;DHT22;4757;59.334;18.034;2022-07-29T04:36:39;15.20;99.90
9437;DHT22;4757;59.334;18.034;2022-07-29T04:39:07;15.20;99.90
9437;DHT22;4757;59.334;18.034;2022-07-29T04:41:34;15.30;99.90
9437;DHT22;4757;59.334;18.034;2022-07-29T04:44:01;15.30;99.90
9437;DHT22;4757;59.334;18.034;2022-07-29T04:46:33;15.60;99.90
9437;DHT22;4757;59.334;18.034;2022-07-29T04:49:00;15.70;99.90
9437;DHT22;4757;59.334;18.034;2022-07-29T04:51:27;15.80;99.90
9437;DHT22;4757;59.334;18.034;2022-07-29T04:53:54;15.80;99.90
9437;DHT22;4757;59.334;18.034;2022-07-29T04:56:21;15.80;99.90
9437;DHT22;4757;59.334;18.034;2022-07-29T04:58:48;15.80;99.90
9437;DHT22;4757;59.334;18.034;2022-07-29T05:01:15;15.90;99.90
9437;DHT22;4757;59.334;18.034;2022-07-29T05:03:42;15.90;99.90
9437;DHT22;4757;59.334;18.034;2022-07-29T05:06:09;16.00;99.90
9437;DHT22;4757;59.334;18.034;2022-07-29T05:08:36;16.10;99.90
9437;DHT22;4757;59.334;18.034;2022-07-29T05:11:07;16.10;99.90
9437;DHT22;4757;59.334;18.034;2022-07-29T05:13:38;16.20;99.90
9437;DHT22;4757;59.334;18.034;2022-07-29T05:16:15;16.30;99.90
9437;DHT22;4757;59.334;18.034;2022-07-29T05:18:45;16.30;99.90
9437;DHT22;4757;59.334;18.034;2022-07-29T05:21:19;16.40;99.90
9437;DHT22;4757;59.334;18.034;2022-07-29T05:23:46;16.40;99.90
9437;DHT22;4757;59.334;18.034;2022-07-29T05:26:13;16.60;99.90
9437;DHT22;4757;59.334;18.034;2022-07-29T05:28:40;16.70;99.90
9437;DHT22;4757;59.334;18.034;2022-07-29T05:31:07;16.70;99.90
9437;DHT22;4757;59.334;18.034;2022-07-29T05:33:34;16.70;99.90
9437;DHT22;4757;59.334;18.034;2022-07-29T05:36:04;16.70;99.90
9437;DHT22;4757;59.334;18.034;2022-07-29T05:38:34;16.80;99.90
9437;DHT22;4757;59.334;18.034;2022-07-29T05:41:02;16.80;99.90
9437;DHT22;4757;59.334;18.034;2022-07-29T05:43:29;16.90;99.90
9437;DHT22;4757;59.334;18.034;2022-07-29T05:45:56;16.80;99.90
9437;DHT22;4757;59.334;18.034;2022-07-29T05:48:23;16.80;99.90
9437;DHT22;4757;59.334;18.034;2022-07-29T05:50:51;17.00;99.90
9437;DHT22;4757;59.334;18.034;2022-07-29T05:53:18;17.20;99.90
9437;DHT22;4757;59.334;18.034;2022-07-29T05:55:47;17.20;99.90
9437;DHT22;4757;59.334;18.034;2022-07-29T05:58:14;17.00;99.90
9437;DHT22;4757;59.334;18.034;2022-07-29T06:00:41;17.00;99.90
9437;DHT22;4757;59.334;18.034;2022-07-29T06:03:08;17.10;99.90
9437;DHT22;4757;59.334;18.034;2022-07-29T06:05:35;17.00;99.90
9437;DHT22;4757;59.334;18.034;2022-07-29T06:08:03;17.10;99.90
9437;DHT22;4757;59.334;18.034;2022-07-29T06:10:32;17.20;99.90
9437;DHT22;4757;59.334;18.034;2022-07-29T06:12:59;17.20;99.90
9437;DHT22;4757;59.334;18.034;2022-07-29T06:15:29;17.20;99.90
9437;DHT22;4757;59.334;18.034;2022-07-29T06:17:56;17.30;99.90
9437;DHT22;4757;59.334;18.034;2022-07-29T06:20:27;17.40;99.90
9437;DHT22;4757;59.334;18.034;2022-07-29T06:22:56;17.40;99.90
9437;DHT22;4757;59.334;18.034;2022-07-29T06:25:23;17.40;99.90
9437;DHT22;4757;59.334;18.034;2022-07-29T06:27:50;17.60;99.90
9437;DHT22;4757;59.334;18.034;2022-07-29T06:30:17;17.90;99.90
9437;DHT22;4757;59.334;18.034;2022-07-29T06:32:45;18.10;99.90
9437;DHT22;4757;59.334;18.034;2022-07-29T06:35:11;18.10;99.90
9437;DHT22;4757;59.334;18.034;2022-07-29T06:37:58;18.00;99.90
9437;DHT22;4757;59.334;18.034;2022-07-29T06:40:26;18.10;99.90
9437;DHT22;4757;59.334;18.034;2022-07-29T06:43:11;18.30;99.90
9437;DHT22;4757;59.334;18.034;2022-07-29T06:45:38;18.20;99.90
9437;DHT22;4757;59.334;18.034;2022-07-29T06:48:08;18.40;99.90
9437;DHT22;4757;59.334;18.034;2022-07-29T06:50:36;18.60;99.90
9437;DHT22;4757;59.334;18.034;2022-07-29T06:53:03;19.30;99.90
9437;DHT22;4757;59.334;18.034;2022-07-29T06:55:30;19.70;99.90
9437;DHT22;4757;59.334;18.034;2022-07-29T06:57:57;20.00;99.90
9437;DHT22;4757;59.334;18.034;2022-07-29T07:00:24;20.90;99.90
9437;DHT22;4757;59.334;18.034;2022-07-29T07:02:51;20.60;99.90
9437;DHT22;4757;59.334;18.034;2022-07-29T07:05:18;20.80;99.90
9437;DHT22;4757;59.334;18.034;2022-07-29T07:07:45;21.60;99.90
9437;DHT22;4757;59.334;18.034;2022-07-29T07:10:12;21.80;99.90
9437;DHT22;4757;59.334;18.034;2022-07-29T07:12:39;22.90;99.90
9437;DHT22;4757;59.334;18.034;2022-07-29T07:15:06;22.90;99.90
9437;DHT22;4757;59.334;18.034;2022-07-29T07:17:33;22.00;99.90
9437;DHT22;4757;59.334;18.034;2022-07-29T07:20:00;21.40;99.90
9437;DHT22;4757;59.334;18.034;2022-07-29T07:22:27;20.70;99.90
9437;DHT22;4757;59.334;18.034;2022-07-29T07:24:55;20.70;99.90
9437;DHT22;4757;59.334;18.034;2022-07-29T07:27:22;20.80;99.90
9437;DHT22;4757;59.334;18.034;2022-07-29T07:29:49;20.80;99.90
9437;DHT22;4757;59.334;18.034;2022-07-29T07:32:19;20.80;99.90
9437;DHT22;4757;59.334;18.034;2022-07-29T07:34:46;21.40;99.90
9437;DHT22;4757;59.334;18.034;2022-07-29T07:37:13;21.90;99.90
9437;DHT22;4757;59.334;18.034;2022-07-29T07:39:41;21.70;99.90
9437;DHT22;4757;59.334;18.034;2022-07-29T07:42:08;21.50;99.90
9437;DHT22;4757;59.334;18.034;2022-07-29T07:44:38;20.40;99.90
9437;DHT22;4757;59.334;18.034;2022-07-29T07:47:25;21.40;99.90
9437;DHT22;4757;59.334;18.034;2022-07-29T07:49:53;20.80;99.90
9437;DHT22;4757;59.334;18.034;2022-07-29T07:52:21;20.60;99.90
9437;DHT22;4757;59.334;18.034;2022-07-29T07:54:49;20.70;99.90
9437;DHT22;4757;59.334;18.034;2022-07-29T07:57:16;21.70;99.90
9437;DHT22;4757;59.334;18.034;2022-07-29T07:59:43;21.20;99.90
9437;DHT22;4757;59.334;18.034;2022-07-29T08:02:10;21.00;99.90
9437;DHT22;4757;59.334;18.034;2022-07-29T08:04:37;22.60;99.90
9437;DHT22;4757;59.334;18.034;2022-07-29T08:07:07;23.60;99.90
9437;DHT22;4757;59.334;18.034;2022-07-29T08:09:35;23.80;99.90
9437;DHT22;4757;59.334;18.034;2022-07-29T08:12:03;23.20;99.90
9437;DHT22;4757;59.334;18.034;2022-07-29T08:14:32;23.10;99.90
9437;DHT22;4757;59.334;18.034;2022-07-29T08:16:59;23.20;99.90
9437;DHT22;4757;59.334;18.034;2022-07-29T08:19:27;23.20;99.90
9437;DHT22;4757;59.334;18.034;2022-07-29T08:21:54;23.10;99.90
9437;DHT22;4757;59.334;18.034;2022-07-29T08:24:22;22.60;99.90
9437;DHT22;4757;59.334;18.034;2022-07-29T08:27:08;22.30;99.90
9437;DHT22;4757;59.334;18.034;2022-07-29T08:29:55;23.30;99.90
9437;DHT22;4757;59.334;18.034;2022-07-29T08:32:22;23.20;99.90
9437;DHT22;4757;59.334;18.034;2022-07-29T08:35:09;22.70;99.90
9437;DHT22;4757;59.334;18.034;2022-07-29T08:37:37;21.90;99.90
9437;DHT22;4757;59.334;18.034;2022-07-29T08:40:04;21.60;99.90
9437;DHT22;4757;59.334;18.034;2022-07-29T08:42:32;21.80;99.90
9437;DHT22;4757;59.334;18.034;2022-07-29T08:45:01;21.30;99.90
9437;DHT22;4757;59.334;18.034;2022-07-29T08:47:28;20.80;99.90
9437;DHT22;4757;59.334;18.034;2022-07-29T08:49:56;21.30;99.90
9437;DHT22;4757;59.334;18.034;2022-07-29T08:52:25;21.60;99.90
9437;DHT22;4757;59.334;18.034;2022-07-29T08:54:53;22.00;99.90
9437;DHT22;4757;59.334;18.034;2022-07-29T08:57:22;21.70;99.90
9437;DHT22;4757;59.334;18.034;2022-07-29T08:59:52;21.40;99.90
9437;DHT22;4757;59.334;18.034;2022-07-29T09:02:22;21.20;99.90
9437;DHT22;4757;59.334;18.034;2022-07-29T09:05:00;20.90;99.90
9437;DHT22;4757;59.334;18.034;2022-07-29T09:07:33;20.70;99.90
9437;DHT22;4757;59.334;18.034;2022-07-29T09:10:04;20.30;99.90
9437;DHT22;4757;59.334;18.034;2022-07-29T09:12:31;20.50;99.90
9437;DHT22;4757;59.334;18.034;2022-07-29T09:15:03;20.50;99.90
9437;DHT22;4757;59.334;18.034;2022-07-29T09:17:42;20.30;99.90
9437;DHT22;4757;59.334;18.034;2022-07-29T09:20:15;20.40;99.90
9437;DHT22;4757;59.334;18.034;2022-07-29T09:22:43;20.60;99.90
9437;DHT22;4757;59.334;18.034;2022-07-29T09:25:14;20.40;99.90
9437;DHT22;4757;59.334;18.034;2022-07-29T09:27:41;20.30;99.90
9437;DHT22;4757;59.334;18.034;2022-07-29T09:30:09;20.90;99.90
9437;DHT22;4757;59.334;18.034;2022-07-29T09:32:58;21.10;99.90
9437;DHT22;4757;59.334;18.034;2022-07-29T09:35:29;21.90;99.90
9437;DHT22;4757;59.334;18.034;2022-07-29T09:37:57;21.60;99.90
9437;DHT22;4757;59.334;18.034;2022-07-29T09:40:26;21.60;99.90
9437;DHT22;4757;59.334;18.034;2022-07-29T09:42:54;22.00;99.90
9437;DHT22;4757;59.334;18.034;2022-07-29T09:45:31;23.00;99.90
9437;DHT22;4757;59.334;18.034;2022-07-29T09:47:59;23.70;99.90
9437;DHT22;4757;59.334;18.034;2022-07-29T09:50:40;23.30;99.90
9437;DHT22;4757;59.334;18.034;2022-07-29T09:53:07;22.40;99.90
9437;DHT22;4757;59.334;18.034;2022-07-29T09:55:49;22.70;99.90
9437;DHT22;4757;59.334;18.034;2022-07-29T09:58:20;22.90;99.90
9437;DHT22;4757;59.334;18.034;2022-07-29T10:00:49;23.50;99.90
9437;DHT22;4757;59.334;18.034;2022-07-29T10:03:17;24.10;99.90
9437;DHT22;4757;59.334;18.034;2022-07-29T10:06:10;23.70;99.90
9437;DHT22;4757;59.334;18.034;2022-07-29T10:08:41;21.90;99.90
9437;DHT22;4757;59.334;18.034;2022-07-29T10:11:13;22.50;99.90
9437;DHT22;4757;59.334;18.034;2022-07-29T10:13:42;22.50;99.90
9437;DHT22;4757;59.334;18.034;2022-07-29T10:16:10;23.20;99.90
9437;DHT22;4757;59.334;18.034;2022-07-29T10:18:40;23.30;99.90
9437;DHT22;4757;59.334;18.034;2022-07-29T10:21:08;23.00;99.90
9437;DHT22;4757;59.334;18.034;2022-07-29T10:23:48;22.50;99.90
9437;DHT22;4757;59.334;18.034;2022-07-29T10:26:16;22.70;99.90
9437;DHT22;4757;59.334;18.034;2022-07-29T10:28:44;22.60;99.90
9437;DHT22;4757;59.334;18.034;2022-07-29T10:31:22;22.80;99.90
9437;DHT22;4757;59.334;18.034;2022-07-29T10:34:07;22.90;99.90
9437;DHT22;4757;59.334;18.034;2022-07-29T10:36:52;21.90;99.90
9437;DHT22;4757;59.334;18.034;2022-07-29T10:39:40;21.50;99.90
9437;DHT22;4757;59.334;18.034;2022-07-29T10:42:23;22.50;99.90
9437;DHT22;4757;59.334;18.034;2022-07-29T10:45:00;23.30;99.90
9437;DHT22;4757;59.334;18.034;2022-07-29T10:47:27;23.20;99.90
9437;DHT22;4757;59.334;18.034;2022-07-29T10:50:05;22.40;99.90
9437;DHT22;4757;59.334;18.034;2022-07-29T10:52:52;21.90;99.90
9437;DHT22;4757;59.334;18.034;2022-07-29T10:55:50;23.30;99.90
9437;DHT22;4757;59.334;18.034;2022-07-29T10:58:19;24.00;99.90
9437;DHT22;4757;59.334;18.034;2022-07-29T11:00:52;23.30;99.90
9437;DHT22;4757;59.334;18.034;2022-07-29T11:03:48;22.80;99.90
9437;DHT22;4757;59.334;18.034;2022-07-29T11:06:19;22.60;99.90
9437;DHT22;4757;59.334;18.034;2022-07-29T11:09:16;22.90;99.90
9437;DHT22;4757;59.334;18.034;2022-07-29T11:11:52;22.40;99.90
9437;DHT22;4757;59.334;18.034;2022-07-29T11:17:26;22.20;99.90
9437;DHT22;4757;59.334;18.034;2022-07-29T11:20:41;22.10;99.90
9437;DHT22;4757;59.334;18.034;2022-07-29T11:23:26;22.00;99.90
9437;DHT22;4757;59.334;18.034;2022-07-29T11:26:19;21.90;99.90
9437;DHT22;4757;59.334;18.034;2022-07-29T11:31:43;21.50;99.90
9437;DHT22;4757;59.334;18.034;2022-07-29T11:34:29;21.80;99.90
9437;DHT22;4757;59.334;18.034;2022-07-29T11:39:35;21.30;99.90
9437;DHT22;4757;59.334;18.034;2022-07-29T11:48:00;21.60;99.90
9437;DHT22;4757;59.334;18.034;2022-07-29T11:50:47;21.40;99.90
9437;DHT22;4757;59.334;18.034;2022-07-29T11:53:15;21.50;99.90
9437;DHT22;4757;59.334;18.034;2022-07-29T11:55:42;21.70;99.90
9437;DHT22;4757;59.334;18.034;2022-07-29T11:58:21;21.90;99.90
9437;DHT22;4757;59.334;18.034;2022-07-29T12:00:52;21.90;99.90
9437;DHT22;4757;59.334;18.034;2022-07-29T12:03:26;21.60;99.90
9437;DHT22;4757;59.334;18.034;2022-07-29T12:06:14;21.50;99.90
9437;DHT22;4757;59.334;18.034;2022-07-29T12:08:44;21.60;99.90
9437;DHT22;4757;59.334;18.034;2022-07-29T12:11:17;21.70;99.90
9437;DHT22;4757;59.334;18.034;2022-07-29T12:13:47;21.90;99.90
9437;DHT22;4757;59.334;18.034;2022-07-29T12:16:15;22.10;99.90
9437;DHT22;4757;59.334;18.034;2022-07-29T12:18:59;22.10;99.90
9437;DHT22;4757;59.334;18.034;2022-07-29T12:21:44;22.20;99.90
9437;DHT22;4757;59.334;18.034;2022-07-29T12:24:25;22.20;99.90
9437;DHT22;4757;59.334;18.034;2022-07-29T12:29:21;22.10;99.90
9437;DHT22;4757;59.334;18.034;2022-07-29T12:32:02;22.30;99.90
9437;DHT22;4757;59.334;18.034;2022-07-29T12:34:40;22.70;99.90
9437;DHT22;4757;59.334;18.034;2022-07-29T12:37:09;22.60;99.90
9437;DHT22;4757;59.334;18.034;2022-07-29T12:39:37;22.80;99.90
9437;DHT22;4757;59.334;18.034;2022-07-29T12:42:12;23.20;99.90
9437;DHT22;4757;59.334;18.034;2022-07-29T12:44:49;22.90;99.90
9437;DHT22;4757;59.334;18.034;2022-07-29T12:47:17;23.10;99.90
9437;DHT22;4757;59.334;18.034;2022-07-29T12:49:50;23.70;99.90
9437;DHT22;4757;59.334;18.034;2022-07-29T12:52:44;23.70;99.90
9437;DHT22;4757;59.334;18.034;2022-07-29T12:55:14;23.50;99.90
9437;DHT22;4757;59.334;18.034;2022-07-29T12:57:49;22.60;99.90
9437;DHT22;4757;59.334;18.034;2022-07-29T13:00:24;22.40;99.90
9437;DHT22;4757;59.334;18.034;2022-07-29T13:02:59;22.70;99.90
9437;DHT22;4757;59.334;18.034;2022-07-29T13:05:44;22.80;99.90
9437;DHT22;4757;59.334;18.034;2022-07-29T13:08:16;22.60;99.90
9437;DHT22;4757;59.334;18.034;2022-07-29T13:10:47;23.10;99.90
9437;DHT22;4757;59.334;18.034;2022-07-29T13:13:15;23.60;99.90
9437;DHT22;4757;59.334;18.034;2022-07-29T13:15:46;23.90;99.90
9437;DHT22;4757;59.334;18.034;2022-07-29T13:18:34;23.90;99.90
9437;DHT22;4757;59.334;18.034;2022-07-29T13:21:13;23.00;99.90
9437;DHT22;4757;59.334;18.034;2022-07-29T13:23:41;22.60;99.90
9437;DHT22;4757;59.334;18.034;2022-07-29T13:26:09;22.20;99.90
9437;DHT22;4757;59.334;18.034;2022-07-29T13:28:38;22.10;99.90
9437;DHT22;4757;59.334;18.034;2022-07-29T13:31:05;22.40;99.90
9437;DHT22;4757;59.334;18.034;2022-07-29T13:33:32;22.80;99.90
9437;DHT22;4757;59.334;18.034;2022-07-29T13:35:59;22.80;99.90
9437;DHT22;4757;59.334;18.034;2022-07-29T13:38:27;22.40;99.90
9437;DHT22;4757;59.334;18.034;2022-07-29T13:40:57;22.80;99.90
9437;DHT22;4757;59.334;18.034;2022-07-29T13:43:25;23.10;99.90
9437;DHT22;4757;59.334;18.034;2022-07-29T13:45:52;23.10;99.90
9437;DHT22;4757;59.334;18.034;2022-07-29T13:48:19;23.00;99.90
9437;DHT22;4757;59.334;18.034;2022-07-29T13:50:49;22.70;99.90
9437;DHT22;4757;59.334;18.034;2022-07-29T13:53:16;22.10;99.90
9437;DHT22;4757;59.334;18.034;2022-07-29T13:55:44;22.10;99.90
9437;DHT22;4757;59.334;18.034;2022-07-29T13:58:11;22.40;99.90
9437;DHT22;4757;59.334;18.034;2022-07-29T14:00:38;22.60;99.90
9437;DHT22;4757;59.334;18.034;2022-07-29T14:03:05;22.50;99.90
9437;DHT22;4757;59.334;18.034;2022-07-29T14:05:33;22.30;99.90
9437;DHT22;4757;59.334;18.034;2022-07-29T14:08:00;22.60;99.90
9437;DHT22;4757;59.334;18.034;2022-07-29T14:10:27;22.90;99.90
9437;DHT22;4757;59.334;18.034;2022-07-29T14:12:54;22.80;99.90
9437;DHT22;4757;59.334;18.034;2022-07-29T14:15:22;22.70;99.90
9437;DHT22;4757;59.334;18.034;2022-07-29T14:17:49;22.50;99.90
9437;DHT22;4757;59.334;18.034;2022-07-29T14:20:18;22.70;99.90
9437;DHT22;4757;59.334;18.034;2022-07-29T14:22:45;22.80;99.90
9437;DHT22;4757;59.334;18.034;2022-07-29T14:25:12;22.90;99.90
9437;DHT22;4757;59.334;18.034;2022-07-29T14:27:41;23.30;99.90
9437;DHT22;4757;59.334;18.034;2022-07-29T14:30:09;22.90;99.90
9437;DHT22;4757;59.334;18.034;2022-07-29T14:32:36;22.90;99.90
9437;DHT22;4757;59.334;18.034;2022-07-29T14:35:04;23.00;99.90
9437;DHT22;4757;59.334;18.034;2022-07-29T14:37:31;23.50;99.80
9437;DHT22;4757;59.334;18.034;2022-07-29T14:40:06;23.80;99.40
9437;DHT22;4757;59.334;18.034;2022-07-29T14:42:34;23.90;99.10
9437;DHT22;4757;59.334;18.034;2022-07-29T14:45:02;23.50;99.20
9437;DHT22;4757;59.334;18.034;2022-07-29T14:47:30;23.70;99.00
9437;DHT22;4757;59.334;18.034;2022-07-29T14:49:58;24.10;98.90
9437;DHT22;4757;59.334;18.034;2022-07-29T14:52:25;24.50;99.90
9437;DHT22;4757;59.334;18.034;2022-07-29T14:54:52;23.90;99.90
9437;DHT22;4757;59.334;18.034;2022-07-29T14:57:20;24.40;98.80
9437;DHT22;4757;59.334;18.034;2022-07-29T14:59:47;24.60;98.30
9437;DHT22;4757;59.334;18.034;2022-07-29T15:02:14;24.20;99.90
9437;DHT22;4757;59.334;18.034;2022-07-29T15:04:41;23.30;99.90
9437;DHT22;4757;59.334;18.034;2022-07-29T15:07:08;23.20;99.90
9437;DHT22;4757;59.334;18.034;2022-07-29T15:09:35;23.50;99.90
9437;DHT22;4757;59.334;18.034;2022-07-29T15:12:15;23.70;99.90
9437;DHT22;4757;59.334;18.034;2022-07-29T15:14:43;24.10;99.90
9437;DHT22;4757;59.334;18.034;2022-07-29T15:17:10;23.20;99.90
9437;DHT22;4757;59.334;18.034;2022-07-29T15:19:37;23.80;99.90
9437;DHT22;4757;59.334;18.034;2022-07-29T15:22:10;23.20;99.90
9437;DHT22;4757;59.334;18.034;2022-07-29T15:24:37;22.60;99.90
9437;DHT22;4757;59.334;18.034;2022-07-29T15:27:04;22.80;99.90
9437;DHT22;4757;59.334;18.034;2022-07-29T15:29:31;22.50;99.90
9437;DHT22;4757;59.334;18.034;2022-07-29T15:31:58;21.90;99.90
9437;DHT22;4757;59.334;18.034;2022-07-29T15:34:26;22.40;99.90
9437;DHT22;4757;59.334;18.034;2022-07-29T15:36:53;23.00;99.90
9437;DHT22;4757;59.334;18.034;2022-07-29T15:39:21;22.60;99.90
9437;DHT22;4757;59.334;18.034;2022-07-29T15:41:49;22.60;99.90
9437;DHT22;4757;59.334;18.034;2022-07-29T15:44:17;22.40;99.90
9437;DHT22;4757;59.334;18.034;2022-07-29T15:46:47;22.40;99.90
9437;DHT22;4757;59.334;18.034;2022-07-29T15:49:39;21.70;99.90
9437;DHT22;4757;59.334;18.034;2022-07-29T15:52:18;22.30;99.90
9437;DHT22;4757;59.334;18.034;2022-07-29T15:54:55;22.20;99.90
9437;DHT22;4757;59.334;18.034;2022-07-29T15:57:23;22.30;99.90
9437;DHT22;4757;59.334;18.034;2022-07-29T15:59:50;22.50;99.90
9437;DHT22;4757;59.334;18.034;2022-07-29T16:02:17;22.40;99.90
9437;DHT22;4757;59.334;18.034;2022-07-29T16:04:45;22.00;99.90
9437;DHT22;4757;59.334;18.034;2022-07-29T16:07:12;21.80;99.90
9437;DHT22;4757;59.334;18.034;2022-07-29T16:09:40;21.90;99.90
9437;DHT22;4757;59.334;18.034;2022-07-29T16:12:07;22.10;99.90
9437;DHT22;4757;59.334;18.034;2022-07-29T16:14:41;22.20;99.90
9437;DHT22;4757;59.334;18.034;2022-07-29T16:17:08;22.50;99.90
9437;DHT22;4757;59.334;18.034;2022-07-29T16:19:40;22.70;99.90
9437;DHT22;4757;59.334;18.034;2022-07-29T16:22:07;22.90;99.90
9437;DHT22;4757;59.334;18.034;2022-07-29T16:24:34;23.30;99.90
9437;DHT22;4757;59.334;18.034;2022-07-29T16:27:01;23.40;99.90
9437;DHT22;4757;59.334;18.034;2022-07-29T16:29:28;23.50;99.90
9437;DHT22;4757;59.334;18.034;2022-07-29T16:31:55;23.50;99.90
9437;DHT22;4757;59.334;18.034;2022-07-29T16:34:22;23.20;99.90
9437;DHT22;4757;59.334;18.034;2022-07-29T16:36:49;23.30;99.90
9437;DHT22;4757;59.334;18.034;2022-07-29T16:39:16;23.30;99.90